createdAt,value
2018-02-08T00:01:29.440Z,33.05
2018-02-08T00:03:57.877Z,33.08
2018-02-08T00:06:26.280Z,32.22
2018-02-08T00:08:54.705Z,31.62
2018-02-08T00:11:23.142Z,32.03
2018-02-08T00:13:51.624Z,30.85
2018-02-08T00:16:20.021Z,30.75
2018-02-08T00:18:48.513Z,30.17
2018-02-08T00:21:16.909Z,33.10
2018-02-08T00:23:45.380Z,32.90
2018-02-08T00:26:13.847Z,33.08
2018-02-08T00:28:42.247Z,30.52
2018-02-08T00:31:10.649Z,33.63
2018-02-08T00:33:39.065Z,34.17
2018-02-08T00:36:07.468Z,32.42
2018-02-08T00:38:35.939Z,33.17
2018-02-08T00:41:04.365Z,34.50
2018-02-08T00:43:32.758Z,29.87
2018-02-08T00:46:01.187Z,32.03
2018-02-08T00:48:29.639Z,34.88
2018-02-08T00:50:58.114Z,30.25
2018-02-08T00:53:26.610Z,34.38
2018-02-08T00:55:55.031Z,34.22
2018-02-08T00:58:23.431Z,32.95
2018-02-08T01:00:51.843Z,33.45
2018-02-08T01:03:20.309Z,31.00
2018-02-08T01:05:48.710Z,30.27
2018-02-08T01:08:17.127Z,34.78
2018-02-08T01:10:45.545Z,32.15
2018-02-08T01:13:13.940Z,33.20
2018-02-08T01:15:42.425Z,32.97
2018-02-08T01:18:10.919Z,30.30
2018-02-08T01:20:39.332Z,32.42
2018-02-08T01:23:07.758Z,32.95
2018-02-08T01:25:36.187Z,31.15
2018-02-08T01:28:04.834Z,29.50
2018-02-08T01:30:33.334Z,31.80
2018-02-08T01:33:01.738Z,32.15
2018-02-08T01:35:30.138Z,32.35
2018-02-08T01:37:58.532Z,31.05
2018-02-08T01:40:27.090Z,31.58
2018-02-08T01:42:55.492Z,29.65
2018-02-08T01:45:23.902Z,29.95
2018-02-08T01:47:52.298Z,30.08
2018-02-08T01:50:20.702Z,28.58
2018-02-08T01:52:49.191Z,27.15
2018-02-08T01:55:17.590Z,27.92
2018-02-08T01:57:46.011Z,29.90
2018-02-08T02:00:14.419Z,27.83
2018-02-08T02:02:42.901Z,27.23
2018-02-08T02:05:11.380Z,26.92
2018-02-08T02:07:39.782Z,26.60
2018-02-08T02:10:08.180Z,28.80
2018-02-08T02:12:36.565Z,25.92
2018-02-08T02:15:05.119Z,26.60
2018-02-08T02:17:33.590Z,26.92
2018-02-08T02:20:02.004Z,25.85
2018-02-08T02:22:30.426Z,25.40
2018-02-08T02:24:58.834Z,27.85
2018-02-08T02:27:27.248Z,28.98
2018-02-08T02:29:55.697Z,27.87
2018-02-08T02:32:24.122Z,28.08
2018-02-08T02:34:52.672Z,26.02
2018-02-08T02:37:21.176Z,26.23
2018-02-08T02:39:49.563Z,25.02
2018-02-08T02:42:17.971Z,26.35
2018-02-08T02:44:46.387Z,24.23
2018-02-08T02:47:14.877Z,27.10
2018-02-08T02:49:43.295Z,25.92
2018-02-08T02:52:11.702Z,27.62
2018-02-08T02:54:40.115Z,29.73
2018-02-08T02:57:08.587Z,29.65
2018-02-08T02:59:37.035Z,29.37
2018-02-08T03:02:05.459Z,29.02
2018-02-08T03:04:33.946Z,26.62
2018-02-08T03:07:02.366Z,26.58
2018-02-08T03:09:30.775Z,24.95
2018-02-08T03:11:59.189Z,27.30
2018-02-08T03:14:27.586Z,25.10
2018-02-08T03:16:56.009Z,26.55
2018-02-08T03:19:24.414Z,26.00
2018-02-08T03:21:52.882Z,25.90
2018-02-08T03:24:21.292Z,26.05
2018-02-08T03:26:49.700Z,25.05
2018-02-08T03:29:18.120Z,25.88
2018-02-08T03:31:46.529Z,22.55
2018-02-08T03:34:14.969Z,23.42
2018-02-08T03:36:43.374Z,24.30
2018-02-08T03:39:11.915Z,24.95
2018-02-08T03:41:40.406Z,24.92
2018-02-08T03:44:08.820Z,25.00
2018-02-08T03:46:37.233Z,24.35
2018-02-08T03:49:05.634Z,25.17
2018-02-08T03:51:34.383Z,24.95
2018-02-08T03:54:02.799Z,25.30
2018-02-08T03:56:31.201Z,23.17
2018-02-08T03:58:59.673Z,23.85
2018-02-08T04:01:28.135Z,27.75
2018-02-08T04:03:56.562Z,24.35
2018-02-08T04:06:24.951Z,23.98
2018-02-08T04:08:53.393Z,23.73
2018-02-08T04:11:21.798Z,25.15
2018-02-08T04:13:50.266Z,23.87
2018-02-08T04:16:18.669Z,22.65
2018-02-08T04:18:47.224Z,22.73
2018-02-08T04:21:15.659Z,21.15
2018-02-08T04:23:44.098Z,21.30
2018-02-08T04:26:12.539Z,19.62
2018-02-08T04:28:40.943Z,22.48
2018-02-08T04:31:09.710Z,22.13
2018-02-08T04:33:38.099Z,20.08
2018-02-08T04:36:06.585Z,19.65
2018-02-08T04:38:46.876Z,17.20
2018-02-08T04:41:26.888Z,17.25
2018-02-08T04:47:07.653Z,18.17
2018-02-08T04:49:36.059Z,15.43
2018-02-08T04:52:04.484Z,17.83
2018-02-08T04:54:32.875Z,17.10
2018-02-08T04:57:01.647Z,18.02
2018-02-08T04:59:30.045Z,16.65
2018-02-08T05:02:01.769Z,16.20
2018-02-08T05:04:30.178Z,16.40
2018-02-08T05:06:58.594Z,17.10
2018-02-08T05:09:27.135Z,16.33
2018-02-08T05:11:55.556Z,18.10
2018-02-08T05:14:23.985Z,16.00
2018-02-08T05:16:52.438Z,16.00
2018-02-08T05:19:20.894Z,16.58
2018-02-08T05:21:49.300Z,15.15
2018-02-08T05:24:18.051Z,16.50
2018-02-08T05:26:46.465Z,14.30
2018-02-08T05:29:14.942Z,15.30
2018-02-08T05:31:44.316Z,20.37
2018-02-08T05:34:12.696Z,18.08
2018-02-08T05:36:41.066Z,15.50
2018-02-08T05:39:09.573Z,16.42
2018-02-08T05:41:37.993Z,15.65
2018-02-08T05:44:06.455Z,16.20
2018-02-08T05:46:34.874Z,16.50
2018-02-08T05:49:03.299Z,17.08
2018-02-08T05:51:31.756Z,17.08
2018-02-08T05:54:00.164Z,15.75
2018-02-08T05:56:28.587Z,17.75
2018-02-08T05:58:57.078Z,20.77
2018-02-08T06:01:25.518Z,15.43
2018-02-08T06:03:53.956Z,14.63
2018-02-08T06:06:22.807Z,14.25
2018-02-08T06:08:51.311Z,14.85
2018-02-08T06:11:19.701Z,14.93
2018-02-08T06:13:48.278Z,14.93
2018-02-08T06:16:16.693Z,18.35
2018-02-08T06:18:45.118Z,19.15
2018-02-08T06:21:13.587Z,18.85
2018-02-08T06:23:41.996Z,16.23
2018-02-08T06:26:10.416Z,16.48
2018-02-08T06:28:38.888Z,15.80
2018-02-08T06:31:07.299Z,17.12
2018-02-08T06:33:35.717Z,17.70
2018-02-08T06:36:04.106Z,17.33
2018-02-08T06:38:32.522Z,17.52
2018-02-08T06:41:01.171Z,16.02
2018-02-08T06:43:29.596Z,18.90
2018-02-08T06:45:58.009Z,19.67
2018-02-08T06:48:26.473Z,18.27
2018-02-08T06:50:54.891Z,18.58
2018-02-08T06:53:23.310Z,19.90
2018-02-08T06:55:51.764Z,21.00
2018-02-08T06:58:20.167Z,20.88
2018-02-08T07:00:48.577Z,21.08
2018-02-08T07:03:17.005Z,19.98
2018-02-08T07:05:45.511Z,20.23
2018-02-08T07:08:13.988Z,19.62
2018-02-08T07:10:42.411Z,20.65
2018-02-08T07:13:10.834Z,20.52
2018-02-08T07:15:39.251Z,21.95
2018-02-08T07:18:07.671Z,21.85
2018-02-08T07:20:36.152Z,22.55
2018-02-08T07:23:04.557Z,22.35
2018-02-08T07:25:33.049Z,21.23
2018-02-08T07:28:01.448Z,21.70
2018-02-08T07:30:29.854Z,22.92
2018-02-08T07:32:58.313Z,23.12
2018-02-08T07:35:26.723Z,21.73
2018-02-08T07:37:55.152Z,22.55
2018-02-08T07:40:23.576Z,22.25
2018-02-08T07:42:52.003Z,23.27
2018-02-08T07:45:20.495Z,21.70
2018-02-08T07:47:48.890Z,21.98
2018-02-08T07:50:17.324Z,24.10
2018-02-08T07:52:45.725Z,23.70
2018-02-08T07:55:14.135Z,23.90
2018-02-08T07:57:42.605Z,24.10
2018-02-08T08:00:11.026Z,23.73
2018-02-08T08:02:39.450Z,22.80
2018-02-08T08:05:07.859Z,24.45
2018-02-08T08:07:36.254Z,23.55
2018-02-08T08:10:05.140Z,24.92
2018-02-08T08:12:33.551Z,23.52
2018-02-08T08:15:02.043Z,21.83
2018-02-08T08:17:30.446Z,23.40
2018-02-08T08:19:58.978Z,21.75
2018-02-08T08:22:27.459Z,21.08
2018-02-08T08:24:55.944Z,23.85
2018-02-08T08:27:24.365Z,23.08
2018-02-08T08:29:52.786Z,22.55
2018-02-08T08:32:21.188Z,26.45
2018-02-08T08:34:50.074Z,25.90
2018-02-08T08:37:18.559Z,29.40
2018-02-08T08:39:46.950Z,26.75
2018-02-08T08:42:15.390Z,25.37
2018-02-08T08:44:43.808Z,24.80
2018-02-08T08:47:12.197Z,23.30
2018-02-08T08:49:40.607Z,24.08
2018-02-08T08:52:09.036Z,24.17
2018-02-08T08:54:37.572Z,25.02
2018-02-08T08:57:06.020Z,25.95
2018-02-08T08:59:34.423Z,26.30
2018-02-08T09:02:02.829Z,24.98
2018-02-08T09:04:31.244Z,25.80
2018-02-08T09:06:59.702Z,24.77
2018-02-08T09:09:28.190Z,25.40
2018-02-08T09:11:56.620Z,25.40
2018-02-08T09:14:25.021Z,22.70
2018-02-08T09:16:53.410Z,24.40
2018-02-08T09:19:21.964Z,26.50
2018-02-08T09:21:50.371Z,25.73
2018-02-08T09:24:18.840Z,25.77
2018-02-08T09:26:47.270Z,24.95
2018-02-08T09:29:15.754Z,26.10
2018-02-08T09:31:44.177Z,26.00
2018-02-08T09:34:12.586Z,25.85
2018-02-08T09:36:41.011Z,26.45
2018-02-08T09:39:09.425Z,25.52
2018-02-08T09:41:37.878Z,25.62
2018-02-08T09:44:06.294Z,24.92
2018-02-08T09:46:34.769Z,26.50
2018-02-08T09:49:03.169Z,27.80
2018-02-08T09:51:31.586Z,26.30
2018-02-08T09:54:00.019Z,26.23
2018-02-08T09:56:28.421Z,23.60
2018-02-08T09:58:57.253Z,24.70
2018-02-08T10:01:25.666Z,24.63
2018-02-08T10:03:54.075Z,25.87
2018-02-08T10:06:22.504Z,25.70
2018-02-08T10:08:50.962Z,26.43
2018-02-08T10:11:19.424Z,26.67
2018-02-08T10:13:47.822Z,26.53
2018-02-08T10:16:16.233Z,27.13
2018-02-08T10:18:44.651Z,24.20
2018-02-08T10:21:13.094Z,25.30
2018-02-08T10:23:41.561Z,23.37
2018-02-08T10:26:09.983Z,23.30
2018-02-08T10:28:38.434Z,23.03
2018-02-08T10:31:06.835Z,23.80
2018-02-08T10:33:35.268Z,22.10
2018-02-08T10:36:03.811Z,21.70
2018-02-08T10:38:32.216Z,21.47
2018-02-08T10:41:00.656Z,23.40
2018-02-08T10:43:29.055Z,24.87
2018-02-08T10:45:57.479Z,23.13
2018-02-08T10:48:26.055Z,23.70
2018-02-08T10:50:54.461Z,24.00
2018-02-08T10:53:22.889Z,23.43
2018-02-08T10:55:51.306Z,24.27
2018-02-08T10:58:19.725Z,24.23
2018-02-08T11:00:48.193Z,24.43
2018-02-08T11:03:16.587Z,24.40
2018-02-08T11:05:45.011Z,25.83
2018-02-08T11:08:13.415Z,23.20
2018-02-08T11:10:41.822Z,25.27
2018-02-08T11:13:10.297Z,24.00
2018-02-08T11:15:38.701Z,26.43
2018-02-08T11:18:07.108Z,26.07
2018-02-08T11:20:35.532Z,26.12
2018-02-08T11:23:03.940Z,25.58
2018-02-08T11:25:32.419Z,25.88
2018-02-08T11:28:00.896Z,24.12
2018-02-08T11:30:29.298Z,26.62
2018-02-08T11:32:57.719Z,24.95
2018-02-08T11:35:26.140Z,26.15
2018-02-08T11:37:54.641Z,24.77
2018-02-08T11:40:23.049Z,25.05
2018-02-08T11:42:51.474Z,24.30
2018-02-08T11:45:19.881Z,24.85
2018-02-08T11:47:48.306Z,27.05
2018-02-08T11:50:16.842Z,25.45
2018-02-08T11:52:45.336Z,24.05
2018-02-08T11:55:13.778Z,24.95
2018-02-08T11:57:42.170Z,25.30
2018-02-08T12:00:10.629Z,25.75
2018-02-08T12:02:39.163Z,23.73
2018-02-08T12:05:07.571Z,25.60
2018-02-08T12:07:35.987Z,25.23
2018-02-08T12:10:04.423Z,25.95
2018-02-08T12:12:32.861Z,24.20
2018-02-08T12:15:01.381Z,22.80
2018-02-08T12:17:29.843Z,24.60
2018-02-08T12:19:58.258Z,24.70
2018-02-08T12:22:26.675Z,25.73
2018-02-08T12:24:55.157Z,25.50
2018-02-08T12:27:23.710Z,24.93
2018-02-08T12:29:52.107Z,21.97
2018-02-08T12:32:20.553Z,23.40
2018-02-08T12:34:48.952Z,21.60
2018-02-08T12:37:17.374Z,23.13
2018-02-08T12:39:45.870Z,23.57
2018-02-08T12:42:14.290Z,21.70
2018-02-08T12:44:42.709Z,23.80
2018-02-08T12:47:11.129Z,23.53
2018-02-08T12:49:39.542Z,22.43
2018-02-08T12:52:08.040Z,17.53
2018-02-08T12:54:36.461Z,17.17
2018-02-08T12:57:04.911Z,18.20
2018-02-08T12:59:33.400Z,20.00
2018-02-08T13:02:01.846Z,18.03
2018-02-08T13:04:30.320Z,18.03
2018-02-08T13:06:58.720Z,18.97
2018-02-08T13:09:27.141Z,18.60
2018-02-08T13:11:55.598Z,17.73
2018-02-08T13:14:24.007Z,16.50
2018-02-08T13:16:52.487Z,17.50
2018-02-08T13:19:20.895Z,17.40
2018-02-08T13:21:49.313Z,16.93
2018-02-08T13:24:17.736Z,14.67
2018-02-08T13:26:46.333Z,14.83
2018-02-08T13:29:15.342Z,14.10
2018-02-08T13:31:45.261Z,12.90
2018-02-08T13:34:13.829Z,16.40
2018-02-08T13:36:42.862Z,18.30
2018-02-08T13:42:20.631Z,18.90
2018-02-08T13:44:49.034Z,19.55
2018-02-08T13:47:34.150Z,19.02
2018-02-08T13:53:35.487Z,20.80
2018-02-08T13:56:04.331Z,21.70
2018-02-08T14:01:40.729Z,22.65
2018-02-08T14:04:09.942Z,22.37
2018-02-08T14:06:38.545Z,24.02
2018-02-08T14:09:06.955Z,24.95
2018-02-08T14:11:35.422Z,23.42
2018-02-08T14:14:03.819Z,23.55
2018-02-08T14:16:32.264Z,20.70
2018-02-08T14:19:00.770Z,18.92
2018-02-08T14:21:29.187Z,23.20
2018-02-08T14:23:57.677Z,23.55
2018-02-08T14:26:26.162Z,24.67
2018-02-08T14:28:54.560Z,22.83
2018-02-08T14:31:23.339Z,22.25
2018-02-08T14:33:51.716Z,23.62
2018-02-08T14:36:20.166Z,23.35
2018-02-08T14:38:49.470Z,24.42
2018-02-08T14:41:17.896Z,23.12
2018-02-08T14:43:46.429Z,23.48
2018-02-08T14:46:14.852Z,22.17
2018-02-08T14:48:43.359Z,22.65
2018-02-08T14:51:11.788Z,23.95
2018-02-08T14:53:40.198Z,24.65
2018-02-08T14:56:08.753Z,22.70
2018-02-08T14:58:37.273Z,24.85
2018-02-08T15:01:05.670Z,22.52
2018-02-08T15:03:34.134Z,24.85
2018-02-08T15:06:05.051Z,22.48
2018-02-08T15:08:33.549Z,25.77
2018-02-08T15:11:01.963Z,23.33
2018-02-08T15:13:32.195Z,23.75
2018-02-08T15:16:00.609Z,24.33
2018-02-08T15:18:29.038Z,23.87
2018-02-08T15:20:57.885Z,25.12
2018-02-08T15:23:26.304Z,24.65
2018-02-08T15:25:54.796Z,23.67
2018-02-08T15:28:23.182Z,27.45
2018-02-08T15:30:51.603Z,23.92
2018-02-08T15:33:20.085Z,24.73
2018-02-08T15:35:48.602Z,23.77
2018-02-08T15:38:17.041Z,23.27
2018-02-08T15:40:45.593Z,25.05
2018-02-08T15:43:14.382Z,24.83
2018-02-08T15:45:44.869Z,25.58
2018-02-08T15:48:13.252Z,25.35
2018-02-08T15:50:41.812Z,24.12
2018-02-08T15:53:10.335Z,25.85
2018-02-08T15:55:38.753Z,25.15
2018-02-08T15:58:07.231Z,26.25
2018-02-08T16:00:36.414Z,26.02
2018-02-08T16:03:05.072Z,24.70
2018-02-08T16:05:33.459Z,26.20
2018-02-08T16:08:01.845Z,24.75
2018-02-08T16:10:30.253Z,26.40
2018-02-08T16:12:59.072Z,25.50
2018-02-08T16:15:27.649Z,24.40
2018-02-08T16:17:56.092Z,27.08
2018-02-08T16:20:24.542Z,27.52
2018-02-08T16:22:52.954Z,24.35
2018-02-08T16:25:21.363Z,26.50
2018-02-08T16:27:50.777Z,28.80
2018-02-08T16:30:19.401Z,27.70
2018-02-08T16:32:47.820Z,30.85
2018-02-08T16:35:16.381Z,29.23
2018-02-08T16:37:44.831Z,29.48
2018-02-08T16:40:13.307Z,28.58
2018-02-08T16:42:41.724Z,29.73
2018-02-08T16:45:10.141Z,28.65
2018-02-08T16:47:38.531Z,28.75
2018-02-08T16:50:07.126Z,27.40
2018-02-08T16:52:35.676Z,27.98
2018-02-08T16:55:04.120Z,25.45
2018-02-08T16:57:32.671Z,27.13
2018-02-08T17:00:01.060Z,25.65
2018-02-08T17:02:29.462Z,27.30
2018-02-08T17:04:58.349Z,25.48
2018-02-08T17:07:26.875Z,27.92
2018-02-08T17:09:55.287Z,26.23
2018-02-08T17:12:23.792Z,28.33
2018-02-08T17:14:52.183Z,26.60
2018-02-08T17:17:20.672Z,25.48
2018-02-08T17:19:49.061Z,27.30
2018-02-08T17:22:17.587Z,25.65
2018-02-08T17:24:46.164Z,26.35
2018-02-08T17:27:15.012Z,27.15
2018-02-08T17:29:43.787Z,28.60
2018-02-08T17:32:12.295Z,26.75
2018-02-08T17:34:40.724Z,28.65
2018-02-08T17:37:09.147Z,30.45
2018-02-08T17:39:37.590Z,28.73
2018-02-08T17:42:06.152Z,27.13
2018-02-08T17:44:34.577Z,27.90
2018-02-08T17:47:02.975Z,26.52
2018-02-08T17:49:31.496Z,27.70
2018-02-08T17:52:00.018Z,24.30
2018-02-08T17:54:29.295Z,28.73
2018-02-08T17:56:57.706Z,25.80
2018-02-08T17:59:26.179Z,26.75
2018-02-08T18:01:54.579Z,27.42
2018-02-08T18:04:23.013Z,28.60
2018-02-08T18:06:52.350Z,26.77
2018-02-08T18:09:20.899Z,28.33
2018-02-08T18:11:49.315Z,28.62
2018-02-08T18:16:52.490Z,26.40
2018-02-08T18:19:21.020Z,26.45
2018-02-08T18:21:49.498Z,25.23
2018-02-08T18:24:17.990Z,26.62
2018-02-08T18:26:46.490Z,31.48
2018-02-08T18:29:14.875Z,29.50
2018-02-08T18:31:43.411Z,28.98
2018-02-08T18:34:11.828Z,31.87
2018-02-08T18:36:40.223Z,30.60
2018-02-08T18:39:08.707Z,30.40
2018-02-08T18:41:38.058Z,33.08
2018-02-08T18:44:06.546Z,32.30
2018-02-08T18:46:34.958Z,34.15
2018-02-08T18:49:03.459Z,32.95
2018-02-08T18:51:31.849Z,31.73
2018-02-08T18:54:00.280Z,32.53
2018-02-08T18:56:28.780Z,29.25
2018-02-08T18:58:58.248Z,30.52
2018-02-08T19:01:26.715Z,28.55
2018-02-08T19:03:55.162Z,31.60
2018-02-08T19:06:23.529Z,29.08
2018-02-08T19:08:51.956Z,29.58
2018-02-08T19:11:20.437Z,28.80
2018-02-08T19:13:48.927Z,29.85
2018-02-08T19:16:17.459Z,29.17
2018-02-08T19:18:45.858Z,30.25
2018-02-08T19:21:14.246Z,31.90
2018-02-08T19:23:42.852Z,32.70
2018-02-08T19:26:11.309Z,30.88
2018-02-08T19:28:40.461Z,30.35
2018-02-08T19:31:08.950Z,29.73
2018-02-08T19:33:37.326Z,32.85
2018-02-08T19:36:05.746Z,32.22
2018-02-08T19:38:34.205Z,28.30
2018-02-08T19:41:02.666Z,31.52
2018-02-08T19:43:31.087Z,29.73
2018-02-08T19:45:59.554Z,30.55
2018-02-08T19:48:27.965Z,29.10
2018-02-08T19:50:56.455Z,28.90
2018-02-08T19:53:24.872Z,28.60
2018-02-08T19:55:53.425Z,27.73
2018-02-08T19:58:21.879Z,29.23
2018-02-08T20:00:50.288Z,29.00
2018-02-08T20:03:18.769Z,27.83
2018-02-08T20:05:47.165Z,28.25
2018-02-08T20:08:15.843Z,30.25
2018-02-08T20:10:44.231Z,30.15
2018-02-08T20:13:13.436Z,27.80
2018-02-08T20:15:41.948Z,26.42
2018-02-08T20:18:10.410Z,27.50
2018-02-08T20:20:38.943Z,28.65
2018-02-08T20:23:07.361Z,27.08
2018-02-08T20:25:41.883Z,24.42
2018-02-08T20:28:10.431Z,26.70
2018-02-08T20:30:38.848Z,27.70
2018-02-08T20:33:07.288Z,28.12
2018-02-08T20:35:35.755Z,27.02
2018-02-08T20:38:04.247Z,27.70
2018-02-08T20:40:32.654Z,25.65
2018-02-08T20:43:07.578Z,27.77
2018-02-08T20:45:35.982Z,28.83
2018-02-08T20:48:04.396Z,26.10
2018-02-08T20:50:32.852Z,28.80
2018-02-08T20:53:01.276Z,26.25
2018-02-08T20:55:29.779Z,25.33
2018-02-08T20:57:58.206Z,28.42
2018-02-08T21:00:26.732Z,26.35
2018-02-08T21:02:55.131Z,26.55
2018-02-08T21:05:23.579Z,27.83
2018-02-08T21:07:52.040Z,25.60
2018-02-08T21:10:20.425Z,26.60
2018-02-08T21:12:48.936Z,26.92
2018-02-08T21:15:17.412Z,28.10
2018-02-08T21:17:45.882Z,26.40
2018-02-08T21:20:14.362Z,27.60
2018-02-08T21:22:42.789Z,26.25
2018-02-08T21:25:11.303Z,26.08
2018-02-08T21:27:39.719Z,26.25
2018-02-08T21:30:08.108Z,26.83
2018-02-08T21:32:36.653Z,26.35
2018-02-08T21:35:05.161Z,26.90
2018-02-08T21:37:33.882Z,24.85
2018-02-08T21:40:02.360Z,25.55
2018-02-08T21:42:30.884Z,25.08
2018-02-08T21:44:59.330Z,25.15
2018-02-08T21:47:27.758Z,26.12
2018-02-08T21:49:56.232Z,26.00
2018-02-08T21:52:24.704Z,25.27
2018-02-08T21:54:53.715Z,23.90
2018-02-08T21:57:22.165Z,26.87
2018-02-08T21:59:50.639Z,24.80
2018-02-08T22:02:19.170Z,25.35
2018-02-08T22:04:47.681Z,24.77
2018-02-08T22:07:16.098Z,24.90
2018-02-08T22:09:44.698Z,24.92
2018-02-08T22:12:13.957Z,26.80
2018-02-08T22:14:42.435Z,28.08
2018-02-08T22:17:10.965Z,24.90
2018-02-08T22:19:39.381Z,25.85
2018-02-08T22:22:07.804Z,24.70
2018-02-08T22:24:36.206Z,24.27
2018-02-08T22:27:04.687Z,24.17
2018-02-08T22:29:33.104Z,26.23
2018-02-08T22:32:01.667Z,24.98
2018-02-08T22:34:30.035Z,24.17
2018-02-08T22:36:58.480Z,24.33
2018-02-08T22:39:26.864Z,23.15
2018-02-08T22:41:55.378Z,20.88
2018-02-08T22:44:23.794Z,21.80
2018-02-08T22:46:52.228Z,20.52
2018-02-08T22:49:20.716Z,23.58
2018-02-08T22:51:49.143Z,20.73
2018-02-08T22:54:17.608Z,20.37
2018-02-08T22:56:46.028Z,22.77
2018-02-08T22:59:14.462Z,22.80
2018-02-08T23:01:43.071Z,23.02
2018-02-08T23:04:11.484Z,22.20
2018-02-08T23:06:40.028Z,22.67
2018-02-08T23:09:08.548Z,22.37
2018-02-08T23:11:36.966Z,22.33
2018-02-08T23:14:05.527Z,22.60
2018-02-08T23:16:34.018Z,22.33
2018-02-08T23:19:02.491Z,21.70
2018-02-08T23:21:30.956Z,20.55
2018-02-08T23:23:59.381Z,22.02
2018-02-08T23:26:27.784Z,22.58
2018-02-08T23:28:56.208Z,21.37
2018-02-08T23:31:24.712Z,23.38
2018-02-08T23:33:53.106Z,23.05
2018-02-08T23:36:21.581Z,21.80
2018-02-08T23:38:50.074Z,21.10
2018-02-08T23:41:18.484Z,23.10
2018-02-08T23:43:46.931Z,20.75
2018-02-08T23:46:15.329Z,22.27
2018-02-08T23:48:43.834Z,21.60
2018-02-08T23:51:12.257Z,22.35
2018-02-08T23:53:40.650Z,22.45
2018-02-08T23:56:09.079Z,22.70
2018-02-08T23:58:37.478Z,22.60
